Time;durP1;ratioP1;P1;durP2;ratioP2;P2;SDS_P1;SDS_P2;PMS_P1;PMS_P2;Temp;Humidity;BMP_temperature;BMP_pressure;BME280_temperature;BME280_humidity;BME280_pressure;Samples;Min_cycle;Max_cycle;Signal;HPM_P1;HPM_P2
2023/07/15 00:01:20;;;;;;;0.60;0.60;;;;;;;;;;7387901;19;20141;-85
2023/07/15 00:03:47;;;;;;;0.90;0.90;;;;;;;;;;7387641;19;20914;-85
2023/07/15 00:06:15;;;;;;;0.57;0.57;;;;;;;;;;7388767;19;20132;-85
2023/07/15 00:08:42;;;;;;;0.68;0.68;;;;;;;;;;7385468;19;20171;-86
2023/07/15 00:11:15;;;;;;;0.90;0.90;;;;;;;;;;7391689;19;20145;-85
2023/07/15 00:13:42;;;;;;;0.63;0.63;;;;;;;;;;7388222;19;20144;-85
2023/07/15 00:16:09;;;;;;;1.85;0.90;;;;;;;;;;7391529;19;20140;-85
2023/07/15 00:18:35;;;;;;;0.57;0.57;;;;;;;;;;7388830;19;20152;-85
2023/07/15 00:21:13;;;;;;;0.82;0.70;;;;;;;;;;7389652;19;20500;-85
2023/07/15 00:23:40;;;;;;;0.50;0.50;;;;;;;;;;7391464;19;20541;-85
2023/07/15 00:26:07;;;;;;;0.73;0.73;;;;;;;;;;7388474;19;20598;-85
2023/07/15 00:28:34;;;;;;;0.40;0.40;;;;;;;;;;7388896;19;20656;-85
2023/07/15 00:31:00;;;;;;;0.60;0.60;;;;;;;;;;7401549;19;20129;-85
2023/07/15 00:33:28;;;;;;;0.52;0.52;;;;;;;;;;7405192;19;20159;-85
2023/07/15 00:35:54;;;;;;;2.88;1.00;;;;;;;;;;7405071;19;20726;-85
2023/07/15 00:38:21;;;;;;;0.82;0.82;;;;;;;;;;7403248;19;20166;-85
2023/07/15 00:40:48;;;;;;;1.00;1.00;;;;;;;;;;7408214;19;20141;-86
2023/07/15 00:43:56;;;;;;;1.25;1.17;;;;;;;;;;7405237;19;20161;-88
2023/07/15 00:46:31;;;;;;;0.73;0.73;;;;;;;;;;7403720;19;20129;-86
2023/07/15 00:49:04;;;;;;;0.57;0.57;;;;;;;;;;7388572;19;20374;-86
2023/07/15 00:51:33;;;;;;;0.95;0.75;;;;;;;;;;7390753;19;20494;-86
2023/07/15 00:54:00;;;;;;;0.63;0.63;;;;;;;;;;7390358;19;20141;-86
2023/07/15 00:56:30;;;;;;;0.60;0.60;;;;;;;;;;7391764;19;20133;-86
2023/07/15 00:58:56;;;;;;;0.65;0.65;;;;;;;;;;7391969;19;20137;-86
2023/07/15 01:01:23;;;;;;;1.75;0.88;;;;;;;;;;7392000;19;20513;-86
2023/07/15 01:03:50;;;;;;;0.95;0.95;;;;;;;;;;7392838;19;20612;-86
2023/07/15 01:06:17;;;;;;;0.82;0.82;;;;;;;;;;7391787;19;20137;-86
2023/07/15 01:08:44;;;;;;;0.55;0.55;;;;;;;;;;7390739;19;20181;-87
2023/07/15 01:11:10;;;;;;;1.10;1.00;;;;;;;;;;7391307;19;20165;-86
2023/07/15 01:13:37;;;;;;;0.60;0.60;;;;;;;;;;7393541;19;20126;-86
2023/07/15 01:16:04;;;;;;;0.50;0.50;;;;;;;;;;7402501;19;20158;-87
2023/07/15 01:18:31;;;;;;;1.45;1.02;;;;;;;;;;7406612;19;20192;-86
2023/07/15 01:20:59;;;;;;;1.02;1.02;;;;;;;;;;7411398;19;20139;-85
2023/07/15 01:23:27;;;;;;;0.55;0.55;;;;;;;;;;7399266;19;20801;-84
2023/07/15 01:25:54;;;;;;;1.10;1.10;;;;;;;;;;7398532;19;20129;-85
2023/07/15 01:28:21;;;;;;;0.70;0.70;;;;;;;;;;7395830;19;20176;-85
2023/07/15 01:30:48;;;;;;;0.40;0.40;;;;;;;;;;7398739;19;20135;-85
2023/07/15 01:33:15;;;;;;;1.05;0.93;;;;;;;;;;7398442;19;20145;-86
2023/07/15 01:35:47;;;;;;;0.88;0.88;;;;;;;;;;7397393;19;20724;-86
2023/07/15 01:38:14;;;;;;;0.70;0.70;;;;;;;;;;7396327;19;20893;-86
2023/07/15 01:40:42;;;;;;;0.88;0.88;;;;;;;;;;7396090;19;20133;-86
2023/07/15 01:43:12;;;;;;;1.00;1.00;;;;;;;;;;7399738;19;20200;-86
2023/07/15 01:45:39;;;;;;;0.90;0.90;;;;;;;;;;7397469;19;20353;-86
2023/07/15 01:48:07;;;;;;;0.60;0.60;;;;;;;;;;7396564;19;20232;-85
2023/07/15 01:50:35;;;;;;;0.93;0.85;;;;;;;;;;7398254;19;20146;-86
2023/07/15 01:53:02;;;;;;;0.57;0.57;;;;;;;;;;7398488;19;20137;-86
2023/07/15 01:55:29;;;;;;;0.55;0.55;;;;;;;;;;7398068;19;20149;-86
2023/07/15 01:57:55;;;;;;;0.98;0.75;;;;;;;;;;7394294;19;20160;-86
2023/07/15 02:00:22;;;;;;;0.73;0.73;;;;;;;;;;7396823;19;20132;-85
2023/07/15 02:02:51;;;;;;;0.88;0.85;;;;;;;;;;7396153;19;20483;-86
2023/07/15 02:05:18;;;;;;;1.00;1.00;;;;;;;;;;7397940;19;20458;-86
2023/07/15 02:07:45;;;;;;;1.17;0.88;;;;;;;;;;7395773;19;20169;-86
2023/07/15 02:10:11;;;;;;;1.17;1.10;;;;;;;;;;7397517;19;20129;-85
2023/07/15 02:12:38;;;;;;;0.60;0.60;;;;;;;;;;7398856;19;20127;-86
2023/07/15 02:15:05;;;;;;;1.20;1.20;;;;;;;;;;7398482;19;20144;-85
2023/07/15 02:17:32;;;;;;;0.70;0.70;;;;;;;;;;7398607;19;20159;-85
2023/07/15 02:19:59;;;;;;;1.27;1.17;;;;;;;;;;7424487;19;20150;-86
2023/07/15 02:22:26;;;;;;;1.02;1.02;;;;;;;;;;7424317;19;20143;-87
2023/07/15 02:24:53;;;;;;;0.40;0.40;;;;;;;;;;7408049;19;20144;-86
2023/07/15 02:27:19;;;;;;;0.63;0.63;;;;;;;;;;7393967;19;20148;-86
2023/07/15 02:29:46;;;;;;;0.88;0.88;;;;;;;;;;7394168;19;20137;-87
2023/07/15 02:32:14;;;;;;;0.68;0.68;;;;;;;;;;7395134;19;20487;-86
2023/07/15 02:34:44;;;;;;;1.58;0.95;;;;;;;;;;7395634;19;20127;-86
2023/07/15 02:37:11;;;;;;;0.70;0.70;;;;;;;;;;7394566;19;20176;-87
2023/07/15 02:39:38;;;;;;;0.60;0.60;;;;;;;;;;7395053;19;20136;-87
2023/07/15 02:42:05;;;;;;;0.88;0.88;;;;;;;;;;7395321;19;20684;-87
2023/07/15 02:44:31;;;;;;;0.70;0.70;;;;;;;;;;7396260;19;20137;-86
2023/07/15 02:46:58;;;;;;;0.47;0.47;;;;;;;;;;7395469;19;20141;-86
2023/07/15 02:49:25;;;;;;;0.57;0.57;;;;;;;;;;7395061;19;20137;-86
2023/07/15 02:51:51;;;;;;;0.77;0.77;;;;;;;;;;7398498;19;20140;-86
2023/07/15 02:54:18;;;;;;;2.42;1.00;;;;;;;;;;7395356;19;20143;-86
2023/07/15 02:56:45;;;;;;;0.52;0.52;;;;;;;;;;7394328;19;20589;-86
2023/07/15 02:59:11;;;;;;;0.45;0.45;;;;;;;;;;7397204;19;20137;-86
2023/07/15 03:01:38;;;;;;;0.50;0.50;;;;;;;;;;7396612;19;20117;-87
2023/07/15 03:04:04;;;;;;;5.90;0.98;;;;;;;;;;7395708;19;20228;-87
2023/07/15 03:06:31;;;;;;;0.47;0.47;;;;;;;;;;7394715;19;20588;-87
2023/07/15 03:08:58;;;;;;;0.65;0.65;;;;;;;;;;7396228;19;20133;-87
2023/07/15 03:11:25;;;;;;;0.70;0.70;;;;;;;;;;7395288;19;20842;-86
2023/07/15 03:13:52;;;;;;;0.60;0.60;;;;;;;;;;7394803;19;20137;-86
2023/07/15 03:16:22;;;;;;;0.60;0.60;;;;;;;;;;7395421;19;20141;-87
2023/07/15 03:18:48;;;;;;;0.60;0.60;;;;;;;;;;7393030;19;20251;-86
2023/07/15 03:21:15;;;;;;;4.50;0.93;;;;;;;;;;7394007;19;20164;-86
2023/07/15 03:23:42;;;;;;;0.80;0.63;;;;;;;;;;7395265;19;20143;-87
2023/07/15 03:26:09;;;;;;;0.60;0.60;;;;;;;;;;7394807;19;20667;-87
2023/07/15 03:28:35;;;;;;;0.60;0.52;;;;;;;;;;7397100;19;20188;-85
2023/07/15 03:31:03;;;;;;;0.77;0.77;;;;;;;;;;7395663;19;20137;-85
2023/07/15 03:33:30;;;;;;;0.80;0.80;;;;;;;;;;7394320;19;20133;-85
2023/07/15 03:35:58;;;;;;;0.45;0.45;;;;;;;;;;7406848;19;20147;-87
2023/07/15 03:38:25;;;;;;;0.85;0.80;;;;;;;;;;7406769;19;20175;-87
2023/07/15 03:40:53;;;;;;;0.82;0.80;;;;;;;;;;7406268;19;20204;-86
2023/07/15 03:43:20;;;;;;;0.60;0.60;;;;;;;;;;7405373;19;20141;-86
2023/07/15 03:45:47;;;;;;;0.73;0.73;;;;;;;;;;7407813;19;20133;-86
2023/07/15 03:48:13;;;;;;;0.52;0.52;;;;;;;;;;7407568;19;20169;-87
2023/07/15 03:50:43;;;;;;;0.70;0.70;;;;;;;;;;7407710;19;20181;-87
2023/07/15 03:53:10;;;;;;;0.63;0.63;;;;;;;;;;7404564;19;20141;-85
2023/07/15 03:55:37;;;;;;;0.88;0.85;;;;;;;;;;7394348;19;20608;-85
2023/07/15 03:58:04;;;;;;;0.60;0.60;;;;;;;;;;7393953;19;20173;-83
2023/07/15 04:00:31;;;;;;;0.82;0.82;;;;;;;;;;7393997;19;20149;-85
2023/07/15 04:02:57;;;;;;;1.15;1.08;;;;;;;;;;7396073;19;20139;-85
2023/07/15 04:05:24;;;;;;;0.82;0.82;;;;;;;;;;7394521;19;20159;-85
2023/07/15 04:07:51;;;;;;;0.68;0.68;;;;;;;;;;7395004;19;20145;-85
2023/07/15 04:10:17;;;;;;;0.50;0.45;;;;;;;;;;7395585;19;20133;-86
2023/07/15 04:12:44;;;;;;;0.60;0.60;;;;;;;;;;7397429;19;20133;-85
2023/07/15 04:15:11;;;;;;;0.57;0.57;;;;;;;;;;7394891;19;20145;-85
2023/07/15 04:17:37;;;;;;;0.63;0.63;;;;;;;;;;7396322;19;20172;-86
2023/07/15 04:20:10;;;;;;;0.68;0.68;;;;;;;;;;7415110;19;20501;-84
2023/07/15 04:22:37;;;;;;;0.88;0.82;;;;;;;;;;7413303;19;20139;-87
2023/07/15 04:25:04;;;;;;;0.60;0.60;;;;;;;;;;7414068;19;20137;-87
2023/07/15 04:27:30;;;;;;;0.63;0.63;;;;;;;;;;7412959;19;20172;-87
2023/07/15 04:29:58;;;;;;;0.40;0.40;;;;;;;;;;7415371;19;20133;-87
2023/07/15 04:32:24;;;;;;;1.13;1.10;;;;;;;;;;7415758;19;20140;-87
2023/07/15 04:34:51;;;;;;;0.63;0.63;;;;;;;;;;7414786;19;20125;-87
2023/07/15 04:37:17;;;;;;;0.50;0.50;;;;;;;;;;7414472;19;20184;-87
2023/07/15 04:39:44;;;;;;;0.50;0.50;;;;;;;;;;7398537;19;20137;-87
2023/07/15 04:42:11;;;;;;;0.80;0.80;;;;;;;;;;7394888;19;20145;-86
2023/07/15 04:44:37;;;;;;;0.88;0.88;;;;;;;;;;7398494;19;20147;-85
2023/07/15 04:47:04;;;;;;;1.92;1.13;;;;;;;;;;7398488;19;20200;-85
2023/07/15 04:49:31;;;;;;;0.60;0.60;;;;;;;;;;7398843;19;20133;-86
2023/07/15 04:51:57;;;;;;;0.70;0.70;;;;;;;;;;7395494;19;20159;-86
2023/07/15 04:54:24;;;;;;;0.55;0.55;;;;;;;;;;7400200;19;20143;-86
2023/07/15 04:56:51;;;;;;;0.50;0.50;;;;;;;;;;7401789;19;20156;-85
2023/07/15 04:59:17;;;;;;;0.40;0.40;;;;;;;;;;7406620;19;20137;-86
2023/07/15 05:01:44;;;;;;;0.57;0.57;;;;;;;;;;7402073;19;20883;-86
2023/07/15 05:04:11;;;;;;;0.70;0.70;;;;;;;;;;7407365;19;20172;-86
2023/07/15 05:06:37;;;;;;;1.42;1.13;;;;;;;;;;7405414;19;20137;-86
2023/07/15 05:09:04;;;;;;;0.77;0.77;;;;;;;;;;7404209;19;20634;-86
2023/07/15 05:11:31;;;;;;;0.38;0.38;;;;;;;;;;7405699;19;20177;-85
2023/07/15 05:13:58;;;;;;;0.65;0.65;;;;;;;;;;7406868;19;20475;-86
2023/07/15 05:16:25;;;;;;;0.60;0.60;;;;;;;;;;7402945;19;20137;-87
2023/07/15 05:18:51;;;;;;;4.05;1.38;;;;;;;;;;7402321;19;20169;-85
2023/07/15 05:21:18;;;;;;;1.20;1.20;;;;;;;;;;7403134;19;20144;-86
2023/07/15 05:23:44;;;;;;;0.55;0.55;;;;;;;;;;7404433;19;20152;-86
2023/07/15 05:26:11;;;;;;;0.82;0.82;;;;;;;;;;7404200;19;20143;-86
2023/07/15 05:28:38;;;;;;;0.75;0.75;;;;;;;;;;7404092;19;21044;-86
2023/07/15 05:31:05;;;;;;;1.08;1.05;;;;;;;;;;7401597;19;20193;-85
2023/07/15 05:33:32;;;;;;;0.85;0.82;;;;;;;;;;7406566;19;20193;-86
2023/07/15 05:35:58;;;;;;;0.68;0.68;;;;;;;;;;7417244;19;20169;-87
2023/07/15 05:38:26;;;;;;;0.60;0.60;;;;;;;;;;7424854;19;20164;-87
2023/07/15 05:40:53;;;;;;;0.85;0.85;;;;;;;;;;7421828;19;20169;-86
2023/07/15 05:43:19;;;;;;;1.50;1.15;;;;;;;;;;7397374;19;20147;-86
2023/07/15 05:45:46;;;;;;;0.55;0.50;;;;;;;;;;7394068;19;20169;-86
2023/07/15 05:48:13;;;;;;;0.60;0.60;;;;;;;;;;7395111;19;20152;-86
2023/07/15 05:50:40;;;;;;;0.68;0.68;;;;;;;;;;7397712;19;20684;-86
2023/07/15 05:53:07;;;;;;;1.70;0.82;;;;;;;;;;7398431;19;20141;-86
2023/07/15 05:55:34;;;;;;;0.57;0.52;;;;;;;;;;7395041;19;20675;-86
2023/07/15 05:58:01;;;;;;;0.60;0.60;;;;;;;;;;7397388;19;20560;-86
2023/07/15 06:00:31;;;;;;;0.73;0.73;;;;;;;;;;7397843;19;20125;-86
2023/07/15 06:02:57;;;;;;;2.50;1.05;;;;;;;;;;7398667;19;20129;-87
2023/07/15 06:05:24;;;;;;;0.50;0.50;;;;;;;;;;7396173;19;20149;-86
2023/07/15 06:07:51;;;;;;;0.60;0.60;;;;;;;;;;7396925;19;20169;-86
2023/07/15 06:10:18;;;;;;;1.08;0.98;;;;;;;;;;7397392;19;20141;-88
2023/07/15 06:12:44;;;;;;;0.75;0.75;;;;;;;;;;7393374;19;20137;-88
2023/07/15 06:15:11;;;;;;;0.98;0.90;;;;;;;;;;7396753;19;20638;-88
2023/07/15 06:17:38;;;;;;;0.68;0.68;;;;;;;;;;7391158;19;20224;-87
2023/07/15 06:20:06;;;;;;;0.57;0.57;;;;;;;;;;7396214;19;20164;-87
2023/07/15 06:22:32;;;;;;;0.50;0.50;;;;;;;;;;7390995;19;20236;-87
2023/07/15 06:25:02;;;;;;;0.65;0.65;;;;;;;;;;7392761;19;20145;-87
2023/07/15 06:27:28;;;;;;;0.77;0.75;;;;;;;;;;7394542;19;20175;-86
2023/07/15 06:29:55;;;;;;;1.33;1.25;;;;;;;;;;7394057;19;20136;-87
2023/07/15 06:32:22;;;;;;;0.90;0.90;;;;;;;;;;7396579;19;20193;-88
2023/07/15 06:34:49;;;;;;;0.60;0.60;;;;;;;;;;7394898;19;20150;-88
2023/07/15 06:37:22;;;;;;;1.08;0.70;;;;;;;;;;7394106;19;20151;-86
2023/07/15 06:39:54;;;;;;;1.17;1.08;;;;;;;;;;7399884;19;20141;-87
2023/07/15 06:42:31;;;;;;;0.60;0.60;;;;;;;;;;7395191;19;20157;-88
2023/07/15 06:44:57;;;;;;;1.15;1.15;;;;;;;;;;7410171;19;20148;-87
2023/07/15 06:47:24;;;;;;;0.70;0.70;;;;;;;;;;7420660;19;20173;-87
2023/07/15 06:49:51;;;;;;;0.80;0.80;;;;;;;;;;7421965;19;20169;-88
2023/07/15 06:52:22;;;;;;;0.75;0.75;;;;;;;;;;7413194;19;20498;-87
2023/07/15 06:54:52;;;;;;;0.47;0.47;;;;;;;;;;7399057;19;20137;-87
2023/07/15 06:57:19;;;;;;;0.77;0.77;;;;;;;;;;7399824;19;20193;-86
2023/07/15 06:59:46;;;;;;;0.70;0.70;;;;;;;;;;7395804;19;20179;-88
2023/07/15 07:02:13;;;;;;;0.68;0.68;;;;;;;;;;7394488;19;20125;-88
2023/07/15 07:04:39;;;;;;;0.75;0.75;;;;;;;;;;7397052;19;20516;-87
2023/07/15 07:07:06;;;;;;;1.25;0.80;;;;;;;;;;7397290;19;20172;-87
2023/07/15 07:09:33;;;;;;;1.00;0.90;;;;;;;;;;7396689;19;20197;-85
2023/07/15 07:11:59;;;;;;;0.50;0.50;;;;;;;;;;7398037;19;20139;-86
2023/07/15 07:14:26;;;;;;;1.30;0.80;;;;;;;;;;7399180;19;20132;-88
2023/07/15 07:16:53;;;;;;;0.60;0.60;;;;;;;;;;7398029;19;20167;-87
2023/07/15 07:19:19;;;;;;;0.80;0.80;;;;;;;;;;7398016;19;20144;-87
2023/07/15 07:21:46;;;;;;;0.90;0.90;;;;;;;;;;7396618;19;20188;-88
2023/07/15 07:24:13;;;;;;;0.70;0.70;;;;;;;;;;7398386;19;20132;-87
2023/07/15 07:26:39;;;;;;;0.40;0.40;;;;;;;;;;7396074;19;20147;-88
2023/07/15 07:29:06;;;;;;;0.43;0.43;;;;;;;;;;7398037;19;20150;-86
2023/07/15 07:31:32;;;;;;;0.70;0.70;;;;;;;;;;7399827;19;20133;-87
2023/07/15 07:33:59;;;;;;;0.85;0.85;;;;;;;;;;7400953;19;20192;-88
2023/07/15 07:36:26;;;;;;;1.67;1.10;;;;;;;;;;7393962;19;20133;-87
2023/07/15 07:38:52;;;;;;;0.55;0.55;;;;;;;;;;7391407;19;20172;-86
2023/07/15 07:41:19;;;;;;;0.43;0.43;;;;;;;;;;7395069;19;20137;-87
2023/07/15 07:43:46;;;;;;;0.88;0.88;;;;;;;;;;7394763;19;20133;-88
2023/07/15 07:46:13;;;;;;;0.75;0.75;;;;;;;;;;7389624;19;20220;-86
2023/07/15 07:48:43;;;;;;;0.73;0.73;;;;;;;;;;7392621;19;20172;-85
2023/07/15 07:51:09;;;;;;;1.15;1.10;;;;;;;;;;7391798;19;20140;-86
2023/07/15 07:53:36;;;;;;;0.93;0.88;;;;;;;;;;7389073;19;20145;-87
2023/07/15 07:56:04;;;;;;;1.30;1.17;;;;;;;;;;7392381;19;20133;-87
2023/07/15 07:58:31;;;;;;;0.88;0.88;;;;;;;;;;7385190;19;20165;-87
2023/07/15 08:00:58;;;;;;;0.98;0.98;;;;;;;;;;7393902;19;20133;-87
2023/07/15 08:03:25;;;;;;;0.82;0.82;;;;;;;;;;7390798;19;20153;-86
2023/07/15 08:05:58;;;;;;;0.57;0.57;;;;;;;;;;7389677;19;20149;-86
2023/07/15 08:08:25;;;;;;;0.60;0.60;;;;;;;;;;7391461;19;20164;-87
2023/07/15 08:11:03;;;;;;;0.82;0.82;;;;;;;;;;7390985;19;20141;-88
2023/07/15 08:18:36;;;;;;;0.82;0.75;;;;;;;;;;7395795;19;20172;-87
